Time;durP1;ratioP1;P1;durP2;ratioP2;P2;SDS_P1;SDS_P2;PMS_P1;PMS_P2;Temp;Humidity;BMP_temperature;BMP_pressure;BME280_temperature;BME280_humidity;BME280_pressure;Samples;Min_cycle;Max_cycle;Signal;HPM_P1;HPM_P2
2023/01/07 00:01:21;;;;;;;4.83;4.03;;;;;;;8.46;77.66;100171.06;5135033;27;20204;-49
2023/01/07 00:03:50;;;;;;;4.40;3.80;;;;;;;8.42;77.97;100170.25;5134639;27;20197;-48
2023/01/07 00:06:19;;;;;;;4.97;3.77;;;;;;;8.51;78.23;100175.31;5134701;27;20198;-48
2023/01/07 00:08:47;;;;;;;4.00;3.60;;;;;;;8.55;77.84;100173.56;5134958;27;20193;-49
2023/01/07 00:11:18;;;;;;;4.07;3.60;;;;;;;8.59;77.56;100170.91;5134766;27;20200;-49
2023/01/07 00:13:45;;;;;;;3.70;3.40;;;;;;;8.60;77.17;100177.81;5134915;27;20309;-48
2023/01/07 00:16:13;;;;;;;3.37;3.13;;;;;;;8.57;77.96;100177.00;5134722;27;20212;-50
2023/01/07 00:18:40;;;;;;;5.07;3.83;;;;;;;8.49;77.45;100178.78;5134567;27;20198;-49
2023/01/07 00:21:10;;;;;;;7.20;3.90;;;;;;;8.36;78.42;100183.22;5134709;27;20208;-48
2023/01/07 00:23:40;;;;;;;4.90;4.13;;;;;;;8.27;78.00;100193.63;5134922;27;20220;-48
2023/01/07 00:26:10;;;;;;;4.03;3.73;;;;;;;8.23;77.97;100197.97;5134670;27;20617;-49
2023/01/07 00:28:38;;;;;;;4.60;4.03;;;;;;;8.32;78.40;100195.34;5134333;27;20220;-50
2023/01/07 00:31:07;;;;;;;4.57;4.17;;;;;;;8.34;78.50;100200.50;5134521;27;20216;-48
2023/01/07 00:33:34;;;;;;;8.20;4.63;;;;;;;8.25;79.04;100198.78;5134344;27;20205;-48
2023/01/07 00:36:03;;;;;;;5.90;4.53;;;;;;;8.19;78.86;100196.28;5134252;27;20205;-49
2023/01/07 00:38:31;;;;;;;7.50;5.50;;;;;;;8.11;79.63;100202.38;5134139;27;20200;-56
2023/01/07 00:40:58;;;;;;;7.87;5.47;;;;;;;8.06;79.70;100201.56;5134148;27;20587;-56
2023/01/07 00:43:25;;;;;;;6.33;5.33;;;;;;;8.04;79.36;100204.13;5134008;27;20278;-57
2023/01/07 00:45:52;;;;;;;6.33;5.20;;;;;;;7.92;80.38;100209.41;5133673;27;20205;-57
2023/01/07 00:48:20;;;;;;;7.77;6.07;;;;;;;7.94;80.15;100205.94;5133965;27;20222;-55
2023/01/07 00:50:48;;;;;;;6.50;5.53;;;;;;;7.88;80.38;100207.72;5133612;27;20198;-56
2023/01/07 00:53:15;;;;;;;6.43;5.37;;;;;;;7.78;80.79;100208.66;5134273;27;20198;-57
2023/01/07 00:55:44;;;;;;;8.77;6.00;;;;;;;7.59;81.64;100207.88;5133946;27;20589;-57
2023/01/07 00:58:15;;;;;;;7.50;5.33;;;;;;;7.62;82.36;100213.03;5133907;27;20251;-57
2023/01/07 01:00:42;;;;;;;5.90;5.30;;;;;;;7.58;81.58;100209.63;5133886;27;20190;-49
2023/01/07 01:03:11;;;;;;;6.97;5.50;;;;;;;7.62;81.44;100203.56;5133874;27;20592;-50
2023/01/07 01:05:38;;;;;;;5.93;5.30;;;;;;;7.55;81.40;100196.75;5133789;27;20552;-49
2023/01/07 01:08:05;;;;;;;5.23;4.73;;;;;;;7.63;81.84;100200.13;5133763;27;20705;-49
2023/01/07 01:10:32;;;;;;;6.13;5.13;;;;;;;7.69;81.28;100204.38;5132839;27;20200;-48
2023/01/07 01:13:01;;;;;;;10.50;5.17;;;;;;;7.65;81.27;100207.88;5133505;27;20198;-48
2023/01/07 01:15:28;;;;;;;7.90;5.23;;;;;;;7.53;81.72;100207.94;5133887;27;20592;-58
2023/01/07 01:17:55;;;;;;;7.67;4.53;;;;;;;7.56;82.01;100203.59;5133674;27;20201;-57
2023/01/07 01:20:22;;;;;;;6.30;4.87;;;;;;;7.54;81.95;100204.50;5133505;27;20205;-57
2023/01/07 01:22:49;;;;;;;5.60;4.50;;;;;;;7.52;82.21;100201.06;5133482;27;20194;-56
2023/01/07 01:25:16;;;;;;;8.43;5.60;;;;;;;7.37;82.20;100198.53;5133324;27;20282;-56
2023/01/07 01:27:43;;;;;;;5.97;5.37;;;;;;;7.38;82.85;100201.13;5133074;27;20611;-57
2023/01/07 01:30:12;;;;;;;5.87;5.27;;;;;;;7.47;82.20;100203.66;5133288;27;20196;-56
2023/01/07 01:32:39;;;;;;;6.17;5.53;;;;;;;7.36;83.13;100194.22;5133043;27;20198;-57
2023/01/07 01:35:06;;;;;;;7.07;5.63;;;;;;;7.11;84.00;100180.59;5133092;27;20204;-57
2023/01/07 01:37:33;;;;;;;8.10;5.77;;;;;;;7.09;85.10;100196.09;5132922;27;20280;-57
2023/01/07 01:40:02;;;;;;;9.53;6.03;;;;;;;7.03;85.08;100195.25;5132965;27;20201;-56
2023/01/07 01:42:30;;;;;;;5.70;5.10;;;;;;;7.05;85.73;100196.97;5132917;27;20324;-57
2023/01/07 01:44:58;;;;;;;14.47;5.77;;;;;;;7.10;85.09;100190.06;5133583;27;20194;-57
2023/01/07 01:47:35;;;;;;;8.37;5.60;;;;;;;7.10;84.68;100186.63;5132904;27;20220;-56
2023/01/07 01:50:10;;;;;;;11.33;5.43;;;;;;;6.95;85.19;100182.38;5132964;27;20198;-56
2023/01/07 01:52:41;;;;;;;6.63;4.90;;;;;;;6.91;85.41;100191.84;5132669;27;20608;-56
2023/01/07 01:55:11;;;;;;;8.00;5.33;;;;;;;6.89;85.83;100184.97;5133070;27;20198;-56
2023/01/07 01:57:39;;;;;;;6.17;5.40;;;;;;;6.84;85.67;100187.56;5132293;27;20221;-56
2023/01/07 02:00:07;;;;;;;5.63;5.07;;;;;;;6.86;86.52;100187.56;5132387;27;20201;-56
2023/01/07 02:02:40;;;;;;;6.20;5.60;;;;;;;6.90;86.05;100184.09;5132576;27;20194;-47
2023/01/07 02:05:08;;;;;;;7.87;6.00;;;;;;;6.81;86.02;100189.28;5132291;27;20202;-49
2023/01/07 02:07:35;;;;;;;8.23;5.47;;;;;;;6.75;85.80;100194.47;5132272;27;20257;-48
2023/01/07 02:10:11;;;;;;;7.03;5.73;;;;;;;6.55;86.18;100174.72;5132415;27;20197;-48
2023/01/07 02:13:13;;;;;;;6.70;5.33;;;;;;;6.59;87.47;100192.78;5132307;27;20245;-48
2023/01/07 02:15:50;;;;;;;8.23;5.70;;;;;;;6.54;86.29;100190.22;5132180;27;20198;-48
2023/01/07 02:18:33;;;;;;;6.03;5.30;;;;;;;6.46;86.95;100199.69;5132330;27;20196;-48
2023/01/07 02:21:10;;;;;;;7.00;5.30;;;;;;;6.56;86.92;100194.50;5131402;27;20228;-49
2023/01/07 02:24:22;;;;;;;7.17;5.90;;;;;;;6.51;87.37;100191.09;5132160;27;20194;-48
2023/01/07 02:27:11;;;;;;;8.67;5.10;;;;;;;6.61;86.19;100191.06;5132188;27;20197;-48
2023/01/07 02:30:19;;;;;;;8.07;5.53;;;;;;;6.62;85.06;100193.66;5132045;27;20267;-49
2023/01/07 02:33:04;;;;;;;6.93;5.53;;;;;;;6.63;85.63;100199.66;5132070;27;20201;-48
2023/01/07 02:35:49;;;;;;;6.17;5.43;;;;;;;6.62;85.09;100196.22;5132146;27;20192;-49
2023/01/07 02:38:24;;;;;;;5.40;4.93;;;;;;;6.62;85.74;100197.94;5131869;27;20186;-57
2023/01/07 02:41:03;;;;;;;6.60;5.23;;;;;;;6.66;85.16;100204.81;5131936;27;20240;-56
2023/01/07 02:43:38;;;;;;;5.93;5.17;;;;;;;6.53;85.31;100199.69;5132064;27;20691;-57
2023/01/07 02:46:12;;;;;;;8.37;5.30;;;;;;;6.46;85.58;100203.13;5131736;27;20193;-48
2023/01/07 02:48:41;;;;;;;6.67;5.43;;;;;;;6.45;84.93;100206.56;5131469;27;20214;-48
2023/01/07 02:51:08;;;;;;;5.53;5.03;;;;;;;6.48;85.67;100203.97;5131662;27;20194;-48
2023/01/07 02:53:36;;;;;;;5.63;5.03;;;;;;;6.45;85.43;100200.53;5131822;27;20538;-48
2023/01/07 02:56:18;;;;;;;5.57;4.83;;;;;;;6.45;85.97;100219.44;5131955;27;20200;-49
2023/01/07 02:59:21;;;;;;;5.50;5.00;;;;;;;6.40;86.85;100223.75;5131513;27;20192;-48
2023/01/07 03:02:21;;;;;;;8.03;5.63;;;;;;;6.26;88.00;100215.16;5131702;27;20189;-54
2023/01/07 03:05:04;;;;;;;5.53;5.03;;;;;;;6.24;88.54;100205.72;5089914;27;20197;-56
2023/01/07 03:07:43;;;;;;;7.10;5.10;;;;;;;6.20;88.69;100199.72;5130939;27;20213;-57
2023/01/07 03:10:18;;;;;;;8.43;5.80;;;;;;;6.26;88.39;100209.16;5131204;27;20204;-48
2023/01/07 03:12:50;;;;;;;6.60;5.67;;;;;;;6.18;88.19;100211.75;5131270;27;20197;-49
2023/01/07 03:15:22;;;;;;;12.80;5.50;;;;;;;6.09;89.60;100222.06;5131300;27;20198;-48
2023/01/07 03:17:58;;;;;;;10.17;5.73;;;;;;;6.10;89.15;100216.88;5131243;27;20193;-48
2023/01/07 03:20:29;;;;;;;6.40;5.73;;;;;;;6.08;89.07;100213.47;5131491;27;20581;-47
2023/01/07 03:22:58;;;;;;;6.57;5.57;;;;;;;6.12;88.47;100212.59;5131431;27;20201;-47
2023/01/07 03:25:28;;;;;;;6.57;5.50;;;;;;;6.14;87.74;100215.16;5130976;27;20208;-57
2023/01/07 03:27:58;;;;;;;7.50;5.67;;;;;;;6.14;87.99;100212.59;5131063;27;20224;-57
2023/01/07 03:30:26;;;;;;;7.07;6.17;;;;;;;6.07;87.85;100208.31;5130951;27;20194;-56
2023/01/07 03:33:00;;;;;;;6.53;5.87;;;;;;;6.03;88.54;100211.72;5130787;27;20205;-56
2023/01/07 03:35:32;;;;;;;8.97;5.87;;;;;;;5.88;89.59;100214.25;5130880;27;20198;-56
2023/01/07 03:38:01;;;;;;;9.77;6.13;;;;;;;5.76;90.10;100215.94;5131140;27;20198;-56
2023/01/07 03:40:28;;;;;;;8.97;6.00;;;;;;;5.61;91.16;100223.66;5130762;27;20198;-55
2023/01/07 03:42:55;;;;;;;10.60;5.80;;;;;;;5.54;91.65;100219.31;5130811;27;20200;-56
2023/01/07 03:45:24;;;;;;;8.03;6.53;;;;;;;5.60;91.96;100218.50;5131104;27;20202;-56
2023/01/07 03:47:54;;;;;;;8.97;6.23;;;;;;;5.60;92.04;100221.06;5130974;28;20301;-57
2023/01/07 03:50:21;;;;;;;8.33;6.03;;;;;;;5.50;92.15;100209.91;5131055;28;20657;-48
2023/01/07 03:52:50;;;;;;;9.27;6.40;;;;;;;5.64;91.56;100223.69;5130849;28;20194;-48
2023/01/07 03:55:17;;;;;;;8.93;6.30;;;;;;;5.57;91.93;100219.34;5130712;28;20194;-47
2023/01/07 03:57:44;;;;;;;9.80;6.50;;;;;;;5.64;91.31;100208.22;5130597;28;20204;-47
2023/01/07 04:00:13;;;;;;;8.67;7.40;;;;;;;5.49;92.42;100215.91;5130730;28;20198;-46
2023/01/07 04:02:39;;;;;;;12.83;7.97;;;;;;;5.51;92.68;100214.19;5131111;28;20650;-48
2023/01/07 04:05:08;;;;;;;11.10;7.47;;;;;;;5.46;92.79;100219.31;5131407;28;20646;-49
2023/01/07 04:07:35;;;;;;;10.63;7.53;;;;;;;5.51;92.82;100214.19;5130610;28;20202;-56
2023/01/07 04:10:04;;;;;;;10.13;7.17;;;;;;;5.52;92.42;100228.78;5130476;28;20594;-47
2023/01/07 04:12:31;;;;;;;9.90;6.90;;;;;;;5.44;92.54;100225.31;5130586;28;20198;-49
2023/01/07 04:14:58;;;;;;;11.97;7.23;;;;;;;5.56;92.22;100227.91;5130647;28;20194;-56
2023/01/07 04:17:25;;;;;;;12.03;7.77;;;;;;;5.64;91.83;100233.13;5130570;28;20250;-56
2023/01/07 04:19:51;;;;;;;12.27;8.23;;;;;;;5.63;91.78;100228.81;5130604;28;20202;-56
2023/01/07 04:22:18;;;;;;;18.70;10.10;;;;;;;5.54;92.35;100227.06;5130479;28;20216;-55
2023/01/07 04:24:45;;;;;;;16.80;9.63;;;;;;;5.48;92.66;100227.06;5130447;28;20579;-56
2023/01/07 04:27:14;;;;;;;11.00;8.43;;;;;;;5.44;92.93;100235.59;5130535;28;20194;-57
2023/01/07 04:29:41;;;;;;;10.47;7.93;;;;;;;5.46;92.65;100239.06;5130380;28;20224;-57
2023/01/07 04:32:07;;;;;;;13.90;8.27;;;;;;;5.46;92.67;100244.19;5130647;28;20211;-57
2023/01/07 04:34:34;;;;;;;10.50;8.17;;;;;;;5.41;93.09;100251.94;5130343;28;20197;-48
2023/01/07 04:37:01;;;;;;;12.33;9.10;;;;;;;5.28;93.63;100257.00;5130356;28;20205;-48
2023/01/07 04:39:28;;;;;;;12.23;8.47;;;;;;;5.28;93.79;100259.59;5130134;28;20186;-49
2023/01/07 04:41:55;;;;;;;16.10;9.97;;;;;;;5.24;93.72;100252.69;5130095;28;20234;-49
2023/01/07 04:44:23;;;;;;;13.47;8.77;;;;;;;5.28;94.11;100245.00;5131328;27;20219;-48
2023/01/07 04:46:50;;;;;;;14.23;8.70;;;;;;;5.31;93.82;100245.00;5133985;27;20605;-57
2023/01/07 04:49:17;;;;;;;13.50;8.27;;;;;;;5.29;93.50;100248.44;5133993;27;20751;-57
2023/01/07 04:51:44;;;;;;;12.97;8.43;;;;;;;5.29;93.73;100251.00;5133917;27;20281;-56
2023/01/07 04:54:11;;;;;;;13.03;9.37;;;;;;;5.30;93.15;100261.31;5134136;27;20200;-56
2023/01/07 04:56:38;;;;;;;15.73;9.93;;;;;;;5.19;93.38;100262.97;5133959;27;20198;-56
2023/01/07 04:59:05;;;;;;;14.20;9.90;;;;;;;5.10;93.93;100257.75;5134245;27;20221;-56
2023/01/07 05:01:33;;;;;;;17.47;10.70;;;;;;;5.10;94.15;100261.19;5133673;27;20681;-48
2023/01/07 05:04:00;;;;;;;20.77;11.17;;;;;;;5.10;94.00;100266.34;5133734;27;20221;-49
2023/01/07 05:06:27;;;;;;;18.43;10.87;;;;;;;5.06;94.32;100263.78;5133573;27;20198;-49
2023/01/07 05:08:54;;;;;;;16.67;10.00;;;;;;;5.01;94.42;100262.88;5133486;27;20217;-56
2023/01/07 05:11:21;;;;;;;16.73;10.13;;;;;;;4.89;95.19;100263.66;5133308;27;20589;-48
2023/01/07 05:13:49;;;;;;;14.43;9.37;;;;;;;4.78;95.94;100264.44;5133103;27;20200;-49
2023/01/07 05:16:16;;;;;;;20.73;10.23;;;;;;;4.69;96.45;100272.97;5133046;27;20262;-57
2023/01/07 05:18:44;;;;;;;21.07;10.43;;;;;;;4.63;97.11;100278.03;5133459;27;20572;-56
2023/01/07 05:21:11;;;;;;;20.10;11.90;;;;;;;4.52;97.91;100275.41;5133537;27;20200;-57
2023/01/07 05:23:39;;;;;;;13.27;9.87;;;;;;;4.55;97.72;100277.13;5133317;27;20194;-56
2023/01/07 05:26:07;;;;;;;12.97;8.90;;;;;;;4.59;97.78;100276.31;5133620;27;20205;-57
2023/01/07 05:28:34;;;;;;;17.13;9.40;;;;;;;4.67;97.45;100278.09;5133054;27;20224;-56
2023/01/07 05:31:01;;;;;;;16.90;10.07;;;;;;;4.72;97.36;100279.00;5133296;27;20588;-56
2023/01/07 05:33:28;;;;;;;15.17;9.13;;;;;;;4.72;97.26;100279.00;5133399;27;20199;-56
2023/01/07 05:35:56;;;;;;;13.60;9.30;;;;;;;4.66;97.64;100283.22;5133411;27;20214;-57
2023/01/07 05:38:23;;;;;;;18.07;11.37;;;;;;;4.65;97.65;100279.78;5132935;27;20198;-56
2023/01/07 05:40:50;;;;;;;21.03;11.37;;;;;;;4.67;97.90;100283.22;5133091;27;20709;-56
2023/01/07 05:43:17;;;;;;;18.13;11.43;;;;;;;4.74;97.59;100284.97;5132977;27;20194;-56
2023/01/07 05:45:45;;;;;;;18.63;11.50;;;;;;;4.62;98.27;100281.50;5133028;27;20198;-56
2023/01/07 05:48:12;;;;;;;21.97;11.33;;;;;;;4.54;98.42;100267.69;5133260;27;20614;-56
2023/01/07 05:50:39;;;;;;;23.10;12.17;;;;;;;4.57;98.94;100283.16;5132731;27;20201;-57
2023/01/07 05:53:08;;;;;;;17.63;10.77;;;;;;;4.55;98.58;100274.56;5132870;27;20198;-57
2023/01/07 05:55:37;;;;;;;18.03;11.63;;;;;;;4.58;98.88;100290.03;5132630;27;20190;-56
2023/01/07 05:58:05;;;;;;;22.27;10.30;;;;;;;4.49;99.04;100295.97;5133168;27;20190;-56
2023/01/07 06:00:31;;;;;;;21.17;11.33;;;;;;;4.42;99.59;100288.16;5132038;27;20190;-57
2023/01/07 06:02:58;;;;;;;23.30;11.70;;;;;;;4.42;99.68;100289.03;5132455;27;20202;-56
2023/01/07 06:05:26;;;;;;;27.33;12.20;;;;;;;4.35;100.00;100288.13;5132760;27;20204;-57
2023/01/07 06:07:52;;;;;;;30.70;13.10;;;;;;;4.32;100.00;100292.38;5132737;27;20216;-49
2023/01/07 06:10:21;;;;;;;26.37;13.67;;;;;;;4.27;100.00;100294.06;5132192;27;20220;-49
2023/01/07 06:12:50;;;;;;;21.90;12.60;;;;;;;4.18;100.00;100294.81;5132705;27;20194;-49
2023/01/07 06:15:17;;;;;;;26.97;11.20;;;;;;;4.15;100.00;100293.94;5132893;27;20202;-48
2023/01/07 06:17:44;;;;;;;24.27;12.47;;;;;;;4.30;100.00;100294.06;5132887;27;20190;-49
2023/01/07 06:20:13;;;;;;;26.27;15.03;;;;;;;4.40;100.00;100293.31;5132217;27;20277;-49
2023/01/07 06:22:41;;;;;;;25.43;14.23;;;;;;;4.36;100.00;100299.28;5132049;27;20198;-47
2023/01/07 06:25:08;;;;;;;20.87;12.03;;;;;;;4.38;100.00;100293.31;5132192;27;20569;-49
2023/01/07 06:27:36;;;;;;;23.10;11.83;;;;;;;4.44;100.00;100299.31;5130805;27;20197;-57
2023/01/07 06:30:04;;;;;;;23.07;12.83;;;;;;;4.45;100.00;100289.06;5130540;27;20216;-48
2023/01/07 06:32:31;;;;;;;21.10;12.07;;;;;;;4.68;100.00;100299.53;5131941;27;20194;-49
2023/01/07 06:34:58;;;;;;;25.40;12.70;;;;;;;4.84;100.00;100308.22;5132220;27;20221;-48
2023/01/07 06:37:25;;;;;;;27.80;14.00;;;;;;;4.91;99.56;100307.41;5131983;27;20571;-48
2023/01/07 06:39:52;;;;;;;17.77;12.57;;;;;;;4.89;99.48;100312.53;5131831;27;20198;-49
2023/01/07 06:42:18;;;;;;;23.57;12.27;;;;;;;4.83;99.78;100320.22;5131634;27;20252;-48
2023/01/07 06:44:47;;;;;;;28.97;14.80;;;;;;;4.82;99.58;100313.34;5131769;27;20198;-48
2023/01/07 06:47:14;;;;;;;28.00;14.73;;;;;;;4.93;99.50;100316.00;5131218;27;20190;-49
2023/01/07 06:49:41;;;;;;;25.80;14.40;;;;;;;4.86;99.59;100315.06;5129367;27;20213;-49
2023/01/07 06:52:07;;;;;;;28.33;14.10;;;;;;;4.89;98.82;100316.81;5129216;27;20674;-48
2023/01/07 06:54:34;;;;;;;32.70;16.70;;;;;;;4.95;99.09;100316.88;5130392;27;20186;-48
2023/01/07 06:57:01;;;;;;;49.53;23.00;;;;;;;5.02;99.16;100316.03;5130549;27;20660;-48
2023/01/07 06:59:28;;;;;;;58.97;26.00;;;;;;;4.92;100.00;100319.41;5130901;27;20187;-56
2023/01/07 07:01:56;;;;;;;52.00;25.33;;;;;;;4.89;100.00;100316.81;5131404;27;20581;-56
2023/01/07 07:04:23;;;;;;;44.07;23.17;;;;;;;4.90;99.92;100309.09;5131410;27;20281;-57
2023/01/07 07:06:50;;;;;;;37.00;20.40;;;;;;;4.97;99.74;100313.44;5127122;27;20226;-57
2023/01/07 07:09:17;;;;;;;34.33;18.90;;;;;;;4.94;99.16;100320.28;5122154;27;20253;-58
2023/01/07 07:11:44;;;;;;;42.77;19.83;;;;;;;5.00;99.25;100315.16;5129131;27;20222;-58
2023/01/07 07:14:11;;;;;;;40.00;20.27;;;;;;;4.93;99.60;100314.28;5131158;27;20675;-58
2023/01/07 07:16:38;;;;;;;40.40;19.53;;;;;;;4.98;99.51;100320.31;5130562;27;20749;-58
2023/01/07 07:19:06;;;;;;;38.63;19.63;;;;;;;5.08;99.12;100319.50;5130777;27;20576;-57
2023/01/07 07:21:33;;;;;;;47.07;19.07;;;;;;;5.16;99.34;100321.28;5130483;27;20221;-56
2023/01/07 07:23:59;;;;;;;38.70;18.20;;;;;;;5.08;99.39;100314.38;5117704;27;20219;-50
2023/01/07 07:26:26;;;;;;;27.23;17.03;;;;;;;5.06;99.86;100316.09;5116908;27;20709;-57
2023/01/07 07:28:53;;;;;;;28.83;16.63;;;;;;;5.25;100.00;100322.19;5130278;27;20295;-57
2023/01/07 07:31:20;;;;;;;37.20;17.33;;;;;;;5.33;99.08;100319.66;5130209;27;20253;-57
2023/01/07 07:33:47;;;;;;;34.83;17.43;;;;;;;5.47;98.83;100318.88;5130092;27;20302;-57
2023/01/07 07:36:15;;;;;;;28.33;15.40;;;;;;;5.56;98.02;100322.34;5130554;27;20229;-58
2023/01/07 07:38:42;;;;;;;30.57;16.17;;;;;;;5.52;97.51;100325.78;5130292;27;20213;-48
2023/01/07 07:41:09;;;;;;;35.03;17.50;;;;;;;5.70;96.36;100321.53;5130643;27;20241;-49
2023/01/07 07:43:36;;;;;;;22.97;15.17;;;;;;;5.82;96.05;100329.31;5117412;28;20610;-48
2023/01/07 07:46:03;;;;;;;28.70;14.33;;;;;;;5.91;95.83;100332.81;5130220;27;20239;-48
2023/01/07 07:48:30;;;;;;;25.23;15.20;;;;;;;6.03;94.55;100336.28;5130256;27;20230;-49
2023/01/07 07:50:57;;;;;;;26.83;15.00;;;;;;;6.10;94.74;100332.84;5130077;28;20325;-48
2023/01/07 07:53:25;;;;;;;25.57;15.47;;;;;;;6.18;93.85;100333.75;5130013;28;20218;-48
2023/01/07 07:55:53;;;;;;;32.90;15.63;;;;;;;6.22;93.69;100326.00;5129438;28;20214;-48
2023/01/07 07:58:20;;;;;;;33.20;14.40;;;;;;;6.28;93.04;100314.00;5129935;28;20232;-48
2023/01/07 08:00:47;;;;;;;36.57;15.47;;;;;;;6.36;92.37;100334.63;5127745;28;20217;-47
2023/01/07 08:03:14;;;;;;;21.37;13.10;;;;;;;6.37;92.08;100334.63;5129536;28;20606;-48
2023/01/07 08:05:43;;;;;;;30.10;14.23;;;;;;;6.38;91.08;100330.34;5128801;28;20244;-48
2023/01/07 08:08:13;;;;;;;26.33;14.20;;;;;;;6.38;90.78;100332.91;5128961;27;20522;-48
2023/01/07 08:10:41;;;;;;;24.33;13.50;;;;;;;6.53;90.90;100330.34;5139451;27;20217;-49
2023/01/07 08:13:08;;;;;;;23.00;13.17;;;;;;;6.67;90.18;100322.59;5138235;27;20221;-48
2023/01/07 08:15:35;;;;;;;24.13;14.10;;;;;;;6.81;89.70;100321.75;5137313;27;20629;-48
2023/01/07 08:18:05;;;;;;;28.87;14.27;;;;;;;6.92;89.25;100319.16;5137489;27;20213;-47
2023/01/07 08:20:33;;;;;;;29.27;13.13;;;;;;;7.00;88.25;100314.00;5133415;27;20228;-49
2023/01/07 08:23:01;;;;;;;24.93;13.40;;;;;;;7.09;88.02;100324.31;5133488;27;20220;-49
2023/01/07 08:25:28;;;;;;;22.13;11.87;;;;;;;7.19;87.75;100316.53;5133345;27;20214;-47
2023/01/07 08:27:58;;;;;;;20.37;11.20;;;;;;;7.29;87.46;100313.06;5132220;27;20629;-56
2023/01/07 08:30:26;;;;;;;14.87;9.60;;;;;;;7.44;86.70;100311.31;5132048;27;20221;-57
2023/01/07 08:32:53;;;;;;;14.93;8.43;;;;;;;7.54;86.36;100306.09;5132395;27;20222;-56
2023/01/07 08:35:20;;;;;;;13.93;9.10;;;;;;;7.61;86.03;100309.50;5133413;27;20765;-56
2023/01/07 08:37:47;;;;;;;17.50;9.80;;;;;;;7.68;85.67;100305.16;5133705;27;20213;-58
2023/01/07 08:40:14;;;;;;;25.87;12.33;;;;;;;7.77;85.57;100311.16;5134030;27;20218;-57
2023/01/07 08:42:41;;;;;;;22.50;12.30;;;;;;;7.81;84.84;100312.84;5133343;27;20218;-57
2023/01/07 08:45:11;;;;;;;17.33;11.90;;;;;;;7.89;84.23;100313.69;5132283;27;20232;-56
2023/01/07 08:47:38;;;;;;;18.90;11.50;;;;;;;7.89;84.84;100305.06;5133358;27;20379;-57
2023/01/07 08:50:06;;;;;;;14.90;10.37;;;;;;;7.88;85.01;100303.34;5132333;27;20220;-55
2023/01/07 08:52:32;;;;;;;16.43;9.67;;;;;;;7.98;84.46;100302.44;5132722;27;20300;-57
2023/01/07 08:54:59;;;;;;;14.07;8.20;;;;;;;8.06;84.19;100297.22;5133522;27;20223;-58
2023/01/07 08:57:26;;;;;;;15.40;10.30;;;;;;;8.06;84.81;100292.03;5132639;27;20301;-57
2023/01/07 08:59:53;;;;;;;13.40;8.73;;;;;;;8.10;84.95;100293.75;5133656;27;20214;-57
2023/01/07 09:02:21;;;;;;;20.90;9.83;;;;;;;8.16;83.96;100285.94;5133454;27;20312;-57
2023/01/07 09:04:48;;;;;;;16.47;10.43;;;;;;;8.22;84.41;100283.31;5133114;27;20228;-57
2023/01/07 09:07:15;;;;;;;14.93;8.67;;;;;;;8.29;84.18;100287.56;5133382;27;20228;-57
2023/01/07 09:09:43;;;;;;;18.20;12.50;;;;;;;8.37;84.54;100280.63;5133279;27;20230;-56
2023/01/07 09:12:09;;;;;;;14.67;11.63;;;;;;;8.47;84.23;100281.41;5131504;27;20224;-56
2023/01/07 09:14:36;;;;;;;14.80;9.17;;;;;;;8.50;84.49;100276.22;5132905;27;20220;-57
2023/01/07 09:17:03;;;;;;;21.73;12.63;;;;;;;8.51;83.57;100270.19;5133114;27;20218;-57
2023/01/07 09:19:31;;;;;;;27.77;15.20;;;;;;;8.54;83.03;100265.00;5132922;27;20297;-57
2023/01/07 09:21:58;;;;;;;20.13;10.30;;;;;;;8.57;83.01;100260.66;5132234;27;20254;-57
2023/01/07 09:24:25;;;;;;;21.87;11.30;;;;;;;8.58;82.73;100264.94;5132880;27;20218;-49
2023/01/07 09:26:52;;;;;;;23.30;10.60;;;;;;;8.65;83.26;100258.00;5131977;27;20229;-48
2023/01/07 09:29:19;;;;;;;14.47;8.53;;;;;;;8.76;82.83;100251.00;5132868;27;20225;-49
2023/01/07 09:31:46;;;;;;;16.50;7.77;;;;;;;8.78;82.41;100253.56;5132638;27;20221;-49
2023/01/07 09:34:13;;;;;;;14.43;7.80;;;;;;;8.85;82.22;100235.34;5132603;27;20635;-48
2023/01/07 09:36:41;;;;;;;10.83;7.37;;;;;;;8.96;82.91;100237.84;5133059;27;20217;-48
2023/01/07 09:39:10;;;;;;;11.13;7.67;;;;;;;9.12;81.99;100231.63;5132696;27;20222;-48
2023/01/07 09:41:49;;;;;;;12.13;7.27;;;;;;;9.16;82.40;100220.34;5131419;27;20240;-48
2023/01/07 09:44:27;;;;;;;9.40;7.23;;;;;;;9.19;82.35;100220.31;5131871;27;20240;-48
2023/01/07 09:46:57;;;;;;;10.10;6.40;;;;;;;9.25;82.32;100220.25;5131933;27;20627;-49
2023/01/07 09:49:31;;;;;;;7.93;6.50;;;;;;;9.33;82.43;100213.22;5132630;27;20274;-48
2023/01/07 09:52:06;;;;;;;9.37;7.30;;;;;;;9.43;82.42;100212.22;5132130;27;20598;-56
2023/01/07 09:54:35;;;;;;;7.97;6.53;;;;;;;9.54;82.01;100196.53;5132532;27;20213;-49
2023/01/07 09:57:02;;;;;;;8.13;6.33;;;;;;;9.65;81.33;100193.78;5131956;27;20217;-49
2023/01/07 09:59:29;;;;;;;6.80;5.43;;;;;;;9.76;81.09;100184.13;5132567;27;20599;-49
2023/01/07 10:02:02;;;;;;;8.23;7.27;;;;;;;9.82;81.38;100179.69;5132441;27;20309;-49
2023/01/07 10:04:38;;;;;;;8.80;5.87;;;;;;;9.89;81.58;100175.28;5132013;27;20228;-48
2023/01/07 10:07:22;;;;;;;8.60;6.33;;;;;;;9.98;81.30;100172.53;5131919;27;20217;-49
2023/01/07 10:10:06;;;;;;;9.20;5.90;;;;;;;10.11;80.82;100176.66;5131745;27;20263;-49
2023/01/07 10:12:40;;;;;;;12.10;6.17;;;;;;;10.17;80.55;100168.75;5131104;27;20218;-49
2023/01/07 10:15:39;;;;;;;9.33;6.17;;;;;;;10.23;80.71;100162.66;5128127;27;20225;-48
2023/01/07 10:18:24;;;;;;;9.67;5.57;;;;;;;10.37;80.14;100158.09;5131084;27;20638;-48
2023/01/07 10:20:58;;;;;;;8.93;6.17;;;;;;;10.39;79.96;100158.03;5130894;27;20217;-48
2023/01/07 10:23:30;;;;;;;7.50;5.57;;;;;;;10.50;79.80;100149.19;5131150;27;20708;-49
2023/01/07 10:26:00;;;;;;;10.47;6.53;;;;;;;10.57;80.08;100151.69;5130784;27;20214;-47
2023/01/07 10:28:32;;;;;;;7.27;5.60;;;;;;;10.65;79.69;100145.44;5131108;27;20216;-47
2023/01/07 10:31:01;;;;;;;10.13;5.80;;;;;;;10.73;79.59;100140.97;5131334;27;20224;-48
2023/01/07 10:33:31;;;;;;;8.07;6.40;;;;;;;10.74;79.37;100141.81;5130512;27;20226;-49
2023/01/07 10:36:09;;;;;;;8.70;6.30;;;;;;;10.76;79.70;100143.50;5130981;27;20236;-50
2023/01/07 10:38:41;;;;;;;10.00;6.27;;;;;;;10.84;79.59;100130.34;5129994;27;20278;-48
2023/01/07 10:41:15;;;;;;;5.60;5.10;;;;;;;10.90;79.58;100136.31;5128049;27;20230;-48
2023/01/07 10:43:59;;;;;;;5.33;4.83;;;;;;;10.90;79.56;100130.25;5127757;27;20617;-48
2023/01/07 10:46:48;;;;;;;12.13;5.93;;;;;;;11.02;80.23;100123.94;5129368;27;20221;-51
2023/01/07 10:49:26;;;;;;;7.63;6.03;;;;;;;11.10;80.22;100111.66;5128637;27;20222;-50
2023/01/07 10:52:15;;;;;;;6.80;5.23;;;;;;;11.14;80.04;100105.50;5131468;27;20689;-49
2023/01/07 10:55:15;;;;;;;6.57;4.97;;;;;;;11.23;80.60;100100.97;5130112;27;20218;-47
2023/01/07 10:57:43;;;;;;;10.43;6.53;;;;;;;11.21;80.95;100091.47;5130215;27;20221;-57
2023/01/07 11:00:14;;;;;;;14.13;9.93;;;;;;;11.25;79.52;100087.94;5130082;27;20220;-57
2023/01/07 11:02:44;;;;;;;41.93;26.37;;;;;;;11.23;79.71;100071.53;5129819;27;20225;-57
2023/01/07 11:05:12;;;;;;;16.00;11.60;;;;;;;11.39;78.47;100077.22;5130914;27;20300;-55
2023/01/07 11:07:44;;;;;;;7.10;6.40;;;;;;;11.46;78.65;100078.78;5131043;27;20220;-58
2023/01/07 11:10:17;;;;;;;6.30;5.70;;;;;;;11.44;78.83;100068.41;5130340;27;20620;-58
2023/01/07 11:12:48;;;;;;;6.47;4.57;;;;;;;11.51;78.68;100063.97;5131003;27;20221;-58
2023/01/07 11:15:20;;;;;;;7.57;5.13;;;;;;;11.43;78.62;100065.84;5130123;27;20224;-58
2023/01/07 11:17:52;;;;;;;5.83;4.67;;;;;;;11.52;78.38;100058.69;5129615;27;20218;-57
2023/01/07 11:20:45;;;;;;;6.70;5.63;;;;;;;11.58;78.53;100057.69;5127331;27;20252;-57
2023/01/07 11:23:26;;;;;;;10.10;5.40;;;;;;;11.61;78.42;100052.44;5129866;27;20600;-57
2023/01/07 11:25:55;;;;;;;9.47;5.37;;;;;;;11.63;78.56;100045.44;5129403;27;20236;-49
2023/01/07 11:28:27;;;;;;;9.40;6.20;;;;;;;11.70;78.22;100043.56;5131839;27;20239;-50
2023/01/07 11:30:57;;;;;;;10.87;7.37;;;;;;;11.77;78.07;100032.13;5142867;27;20220;-48
2023/01/07 11:33:27;;;;;;;9.27;6.37;;;;;;;11.85;77.35;100031.03;5134058;27;20814;-58
2023/01/07 11:35:56;;;;;;;9.57;6.23;;;;;;;11.90;77.15;100023.97;5129792;27;20229;-57
2023/01/07 11:38:29;;;;;;;7.90;5.97;;;;;;;11.95;76.60;100021.25;5126544;27;20218;-58